Time;durP1;ratioP1;P1;durP2;ratioP2;P2;SDS_P1;SDS_P2;PMS_P1;PMS_P2;Temp;Humidity;BMP_temperature;BMP_pressure;BME280_temperature;BME280_humidity;BME280_pressure;Samples;Min_cycle;Max_cycle;Signal;HPM_P1;HPM_P2
2021/09/26 00:00:47;;;;;;;2.30;1.75;;;23.60;55.60;;;;;;5011827;28;20396;-73
2021/09/26 00:03:13;;;;;;;2.47;1.77;;;23.60;55.60;;;;;;5019176;28;20395;-74
2021/09/26 00:05:38;;;;;;;2.50;1.55;;;23.60;55.70;;;;;;5012981;28;20744;-75
2021/09/26 00:08:04;;;;;;;2.88;1.90;;;23.60;55.60;;;;;;5013669;28;20425;-74
2021/09/26 00:10:30;;;;;;;2.30;1.60;;;23.60;55.60;;;;;;5011903;28;20404;-75
2021/09/26 00:12:56;;;;;;;2.50;2.00;;;23.60;55.70;;;;;;5010906;28;20409;-75
2021/09/26 00:15:23;;;;;;;2.65;1.90;;;23.60;56.20;;;;;;5011145;28;20389;-74
2021/09/26 00:17:51;;;;;;;2.50;1.70;;;23.60;55.60;;;;;;5011217;28;20439;-74
2021/09/26 00:20:19;;;;;;;2.60;1.67;;;23.60;55.60;;;;;;5013907;28;20390;-74
2021/09/26 00:22:45;;;;;;;2.83;1.65;;;23.60;55.70;;;;;;5009882;28;20568;-74
2021/09/26 00:25:12;;;;;;;2.50;1.85;;;23.50;56.20;;;;;;5010367;28;20443;-74
2021/09/26 00:27:38;;;;;;;2.15;1.63;;;23.50;55.60;;;;;;5007490;28;20445;-73
2021/09/26 00:30:06;;;;;;;2.35;1.60;;;23.50;55.60;;;;;;5010772;28;20396;-74
2021/09/26 00:32:32;;;;;;;2.95;1.85;;;23.50;55.60;;;;;;5006987;28;20392;-74
2021/09/26 00:34:58;;;;;;;2.65;1.88;;;23.50;55.50;;;;;;5010413;28;20771;-74
2021/09/26 00:37:24;;;;;;;2.20;1.70;;;23.50;55.60;;;;;;5011475;28;20407;-74
2021/09/26 00:39:49;;;;;;;2.17;1.63;;;23.50;55.60;;;;;;5014011;28;20483;-74
2021/09/26 00:42:15;;;;;;;3.10;1.90;;;23.50;55.60;;;;;;5013374;28;20447;-74
2021/09/26 00:44:41;;;;;;;3.70;1.90;;;23.50;55.60;;;;;;5012191;28;20391;-74
2021/09/26 00:47:07;;;;;;;2.30;1.70;;;23.50;55.60;;;;;;5013467;28;21057;-74
2021/09/26 00:49:32;;;;;;;2.50;1.80;;;23.50;55.60;;;;;;5013347;28;20863;-74
2021/09/26 00:51:58;;;;;;;2.28;1.73;;;23.50;55.60;;;;;;5013846;28;20395;-74
2021/09/26 00:54:24;;;;;;;2.22;1.60;;;23.50;55.60;;;;;;5013849;28;20407;-74
2021/09/26 00:56:50;;;;;;;2.67;1.63;;;23.50;55.60;;;;;;5017375;28;20869;-74
2021/09/26 00:59:18;;;;;;;2.28;1.80;;;23.50;55.60;;;;;;5011732;28;20437;-74
2021/09/26 01:01:45;;;;;;;2.67;1.50;;;23.50;55.60;;;;;;5014319;28;20400;-74
2021/09/26 01:04:11;;;;;;;2.28;1.70;;;23.50;55.60;;;;;;5011352;28;20402;-74
2021/09/26 01:06:58;;;;;;;2.20;1.70;;;23.50;55.70;;;;;;5008710;28;20423;-75
2021/09/26 01:09:41;;;;;;;2.83;1.77;;;23.50;55.60;;;;;;5017254;28;20749;-73
2021/09/26 01:12:06;;;;;;;2.00;1.70;;;23.40;55.60;;;;;;5016266;28;20769;-73
2021/09/26 01:14:47;;;;;;;2.57;1.90;;;23.40;55.50;;;;;;5015940;28;20393;-74
2021/09/26 01:17:22;;;;;;;2.40;1.90;;;23.40;55.50;;;;;;5028073;28;20406;-74
2021/09/26 01:20:10;;;;;;;2.47;1.85;;;23.40;55.50;;;;;;5016985;28;20842;-73
2021/09/26 01:23:03;;;;;;;2.42;1.88;;;23.40;55.50;;;;;;5010978;28;20412;-73
2021/09/26 01:25:55;;;;;;;2.17;1.70;;;23.40;55.50;;;;;;5014411;28;20881;-74
2021/09/26 01:28:55;;;;;;;2.40;1.70;;;23.40;55.50;;;;;;5011170;28;20434;-74
2021/09/26 01:31:36;;;;;;;1.90;1.63;;;23.40;55.60;;;;;;4999716;28;20407;-74
2021/09/26 01:34:14;;;;;;;2.70;2.10;;;23.40;55.50;;;;;;5014708;28;20395;-73
2021/09/26 01:36:57;;;;;;;2.30;1.60;;;23.40;55.50;;;;;;5010377;28;20388;-74
2021/09/26 01:39:29;;;;;;;2.10;1.70;;;23.40;55.50;;;;;;5016274;28;20776;-74
2021/09/26 01:42:19;;;;;;;2.10;1.60;;;23.40;55.50;;;;;;5014135;28;20389;-74
2021/09/26 01:44:57;;;;;;;2.55;1.80;;;23.40;55.50;;;;;;5012590;28;20395;-74
2021/09/26 01:47:46;;;;;;;2.00;1.55;;;23.40;55.50;;;;;;5016563;28;20969;-74
2021/09/26 01:50:14;;;;;;;1.98;1.70;;;23.40;55.50;;;;;;5014322;28;20400;-74
2021/09/26 01:52:44;;;;;;;2.15;1.70;;;23.40;55.50;;;;;;5010090;28;20428;-74
2021/09/26 01:55:11;;;;;;;2.50;1.80;;;23.40;55.50;;;;;;5013636;28;20470;-73
2021/09/26 01:57:40;;;;;;;2.35;1.85;;;23.40;55.50;;;;;;5011156;28;20401;-74
2021/09/26 02:00:09;;;;;;;2.70;1.70;;;23.40;55.50;;;;;;5013965;28;20404;-73
2021/09/26 02:02:35;;;;;;;2.50;1.77;;;23.30;55.50;;;;;;5010350;28;20960;-73
2021/09/26 02:05:03;;;;;;;1.90;1.63;;;23.30;55.50;;;;;;5013903;28;20413;-74
2021/09/26 02:07:37;;;;;;;2.15;1.80;;;23.30;55.50;;;;;;5010555;28;20423;-74
2021/09/26 02:10:04;;;;;;;2.20;1.70;;;23.30;55.50;;;;;;5014369;28;20387;-74
2021/09/26 02:12:31;;;;;;;2.37;1.80;;;23.30;55.50;;;;;;5013340;28;20410;-73
2021/09/26 02:14:58;;;;;;;2.33;1.80;;;23.40;55.50;;;;;;5014321;28;20449;-74
2021/09/26 02:17:27;;;;;;;1.90;1.70;;;23.30;55.40;;;;;;5010216;28;20398;-74
2021/09/26 02:20:00;;;;;;;2.83;1.60;;;23.30;55.40;;;;;;5010197;28;20470;-73
2021/09/26 02:22:28;;;;;;;2.25;1.63;;;23.30;55.50;;;;;;5012366;28;20410;-74
2021/09/26 02:24:54;;;;;;;2.90;1.70;;;23.30;55.50;;;;;;5012793;28;20389;-74
2021/09/26 02:27:20;;;;;;;2.35;1.70;;;23.30;55.40;;;;;;5010323;28;20950;-73
2021/09/26 02:29:46;;;;;;;1.95;1.63;;;23.30;55.50;;;;;;5011567;28;20397;-74
2021/09/26 02:32:11;;;;;;;2.10;1.70;;;23.30;55.50;;;;;;5006944;28;20401;-74
2021/09/26 02:34:37;;;;;;;2.00;1.80;;;23.30;55.50;;;;;;5010073;28;20747;-74
2021/09/26 02:37:03;;;;;;;2.10;1.70;;;23.30;55.40;;;;;;5009630;28;20399;-73
2021/09/26 02:39:29;;;;;;;2.90;1.90;;;23.30;55.40;;;;;;5012061;28;20421;-74
2021/09/26 02:42:08;;;;;;;2.30;1.93;;;23.30;55.40;;;;;;5012292;28;20514;-75
2021/09/26 02:44:51;;;;;;;1.92;1.70;;;23.30;55.30;;;;;;5012006;28;21725;-74
2021/09/26 02:47:20;;;;;;;2.33;1.63;;;23.30;55.30;;;;;;5011065;28;20898;-73
2021/09/26 02:49:46;;;;;;;2.53;1.70;;;23.20;55.30;;;;;;5020977;28;20474;-74
2021/09/26 02:52:12;;;;;;;2.00;1.70;;;23.20;55.20;;;;;;5020117;28;20401;-73
2021/09/26 02:54:40;;;;;;;2.10;1.60;;;23.20;55.20;;;;;;5008943;28;20632;-74
2021/09/26 02:57:08;;;;;;;1.92;1.70;;;23.20;55.20;;;;;;5013263;28;20392;-74
2021/09/26 02:59:34;;;;;;;2.30;1.60;;;23.20;55.10;;;;;;5009285;28;20443;-74
2021/09/26 03:02:01;;;;;;;2.15;1.52;;;23.20;55.10;;;;;;5015168;28;20404;-74
2021/09/26 03:04:27;;;;;;;2.80;1.60;;;23.20;55.10;;;;;;5010426;28;20388;-74
2021/09/26 03:06:53;;;;;;;2.00;1.60;;;23.20;55.30;;;;;;5010402;28;20410;-75
2021/09/26 03:09:19;;;;;;;2.25;1.77;;;23.20;55.10;;;;;;5015941;28;20962;-74
2021/09/26 03:11:45;;;;;;;2.10;1.60;;;23.20;55.10;;;;;;5009190;28;20500;-74
2021/09/26 03:14:11;;;;;;;2.28;1.70;;;23.20;55.10;;;;;;5011896;28;20387;-74
2021/09/26 03:16:36;;;;;;;2.03;1.50;;;23.20;55.00;;;;;;5013946;28;20395;-73
2021/09/26 03:19:02;;;;;;;2.53;1.65;;;23.20;55.10;;;;;;5007312;28;20478;-74
2021/09/26 03:21:29;;;;;;;2.28;1.60;;;23.20;55.10;;;;;;5009608;28;20403;-74
2021/09/26 03:23:58;;;;;;;2.00;1.52;;;23.20;55.00;;;;;;5007706;28;20419;-74
2021/09/26 03:26:24;;;;;;;2.40;1.60;;;23.20;55.00;;;;;;5012396;28;20430;-74
2021/09/26 03:28:50;;;;;;;2.38;1.60;;;23.20;55.00;;;;;;5012860;28;21031;-74
2021/09/26 03:31:17;;;;;;;2.20;1.60;;;23.20;55.00;;;;;;5008543;28;20456;-74
2021/09/26 03:33:43;;;;;;;2.10;1.70;;;23.10;54.90;;;;;;5011658;28;20830;-74
2021/09/26 03:36:09;;;;;;;2.30;1.60;;;23.10;54.90;;;;;;5015673;28;20414;-73
2021/09/26 03:38:35;;;;;;;1.83;1.63;;;23.10;54.90;;;;;;5006949;28;20412;-74
2021/09/26 03:41:00;;;;;;;2.00;1.60;;;23.10;54.90;;;;;;5011196;28;20414;-74
2021/09/26 03:43:26;;;;;;;2.35;1.65;;;23.20;54.80;;;;;;5012353;28;20391;-74
2021/09/26 03:45:51;;;;;;;1.75;1.58;;;23.10;54.90;;;;;;5008163;28;20435;-74
2021/09/26 03:48:22;;;;;;;2.50;1.70;;;23.10;55.00;;;;;;5011820;28;20408;-74
2021/09/26 03:50:49;;;;;;;2.20;1.70;;;23.10;54.80;;;;;;5011451;28;20476;-74
2021/09/26 03:53:15;;;;;;;1.92;1.50;;;23.10;54.90;;;;;;5009070;28;20875;-74
2021/09/26 03:55:41;;;;;;;1.80;1.30;;;23.10;54.90;;;;;;5011076;28;20404;-74
2021/09/26 03:58:07;;;;;;;2.92;1.70;;;23.10;54.80;;;;;;5012653;28;20415;-74
2021/09/26 04:00:33;;;;;;;2.08;1.55;;;23.10;54.90;;;;;;5011250;28;20460;-73
2021/09/26 04:02:59;;;;;;;1.88;1.40;;;23.10;54.90;;;;;;5011874;28;20394;-74
2021/09/26 04:05:25;;;;;;;2.60;1.60;;;23.10;54.80;;;;;;5010056;28;20515;-74
2021/09/26 04:07:50;;;;;;;2.28;1.77;;;23.10;54.90;;;;;;5008308;28;20444;-74
2021/09/26 04:10:16;;;;;;;1.93;1.40;;;23.10;54.80;;;;;;5008610;28;20388;-74
2021/09/26 04:12:43;;;;;;;1.95;1.40;;;23.10;54.80;;;;;;5016552;28;20418;-74
2021/09/26 04:15:09;;;;;;;2.45;1.60;;;23.10;54.90;;;;;;5018758;28;20396;-73
2021/09/26 04:17:35;;;;;;;2.10;1.45;;;23.10;54.80;;;;;;5013223;28;20401;-74
2021/09/26 04:20:02;;;;;;;2.27;1.57;;;23.00;54.80;;;;;;5013660;28;20459;-74
2021/09/26 04:22:28;;;;;;;1.92;1.60;;;23.10;54.90;;;;;;5015447;28;20428;-74
2021/09/26 04:24:53;;;;;;;1.70;1.50;;;23.10;54.80;;;;;;5011387;28;20488;-73
2021/09/26 04:27:19;;;;;;;2.40;1.50;;;23.10;54.90;;;;;;5013974;28;21362;-74
2021/09/26 04:29:45;;;;;;;2.10;1.60;;;23.00;54.80;;;;;;5015091;28;20406;-74
2021/09/26 04:32:10;;;;;;;1.75;1.42;;;23.10;54.80;;;;;;5013226;28;20391;-74
2021/09/26 04:34:36;;;;;;;2.33;1.40;;;23.00;54.70;;;;;;5013779;28;20400;-74
2021/09/26 04:37:03;;;;;;;1.80;1.43;;;23.00;54.80;;;;;;5015203;28;20396;-74
2021/09/26 04:39:29;;;;;;;1.80;1.50;;;23.00;54.70;;;;;;5021253;28;20401;-74
2021/09/26 04:41:54;;;;;;;1.80;1.50;;;23.00;54.70;;;;;;5015798;28;20749;-74
2021/09/26 04:44:20;;;;;;;2.53;1.70;;;23.00;54.60;;;;;;5017965;28;20401;-74
2021/09/26 04:46:46;;;;;;;1.92;1.45;;;23.00;54.70;;;;;;5031253;28;20425;-74
2021/09/26 04:49:12;;;;;;;1.90;1.50;;;23.00;54.60;;;;;;5012146;28;20387;-74
2021/09/26 04:51:38;;;;;;;1.90;1.48;;;23.00;54.70;;;;;;5015136;28;21100;-73
2021/09/26 04:54:03;;;;;;;2.00;1.50;;;23.00;54.60;;;;;;5015006;28;20682;-74
2021/09/26 04:56:29;;;;;;;1.60;1.30;;;23.00;54.70;;;;;;5010383;28;21212;-74
2021/09/26 04:58:55;;;;;;;1.80;1.48;;;23.00;54.60;;;;;;5010098;28;20412;-74
2021/09/26 05:01:20;;;;;;;2.40;1.50;;;23.00;54.60;;;;;;5016146;28;20906;-74
2021/09/26 05:03:46;;;;;;;1.90;1.40;;;23.00;54.60;;;;;;5017056;28;20387;-74
2021/09/26 05:06:14;;;;;;;1.80;1.40;;;23.00;54.60;;;;;;5008651;28;20424;-74
2021/09/26 05:08:40;;;;;;;1.90;1.50;;;23.00;54.70;;;;;;5014057;28;20428;-74
2021/09/26 05:11:06;;;;;;;1.80;1.40;;;23.00;54.60;;;;;;5017271;28;20410;-74
2021/09/26 05:13:32;;;;;;;2.10;1.50;;;23.00;54.80;;;;;;5015647;28;20442;-75
2021/09/26 05:15:58;;;;;;;2.60;1.52;;;22.90;54.70;;;;;;5015824;28;20413;-74
2021/09/26 05:18:23;;;;;;;2.20;1.50;;;23.00;54.90;;;;;;5010343;28;20391;-74
2021/09/26 05:20:52;;;;;;;1.90;1.40;;;23.00;54.90;;;;;;5013030;28;20396;-74
2021/09/26 05:23:19;;;;;;;3.00;1.55;;;23.00;54.80;;;;;;5020876;28;20388;-74
2021/09/26 05:25:45;;;;;;;2.72;1.40;;;23.00;55.00;;;;;;5014218;28;20420;-74
2021/09/26 05:28:11;;;;;;;2.03;1.40;;;23.00;55.00;;;;;;5015284;28;20843;-74
2021/09/26 05:30:36;;;;;;;2.20;1.40;;;23.00;55.00;;;;;;5016364;28;20392;-73
2021/09/26 05:33:03;;;;;;;1.77;1.30;;;23.00;55.30;;;;;;5012440;28;20397;-73
2021/09/26 05:35:29;;;;;;;2.58;1.70;;;22.90;53.50;;;;;;5011456;28;20387;-73
2021/09/26 05:37:56;;;;;;;3.72;1.50;;;22.90;54.30;;;;;;5015567;28;20388;-73
2021/09/26 05:40:22;;;;;;;4.20;1.80;;;23.00;53.60;;;;;;5013203;28;20400;-73
2021/09/26 05:42:47;;;;;;;3.85;1.50;;;23.00;54.40;;;;;;5013892;28;20388;-73
2021/09/26 05:45:13;;;;;;;3.38;1.58;;;23.00;54.30;;;;;;5011370;28;20796;-73
2021/09/26 05:47:39;;;;;;;3.20;1.87;;;23.00;54.80;;;;;;5014271;28;20444;-73
2021/09/26 05:50:05;;;;;;;3.88;1.50;;;23.00;54.70;;;;;;5016619;28;20383;-73
2021/09/26 05:52:31;;;;;;;3.13;1.40;;;23.00;54.90;;;;;;5014021;28;20389;-73
2021/09/26 05:54:56;;;;;;;2.97;1.65;;;23.00;55.00;;;;;;5012105;28;20395;-73
2021/09/26 05:57:22;;;;;;;3.78;1.40;;;23.00;55.00;;;;;;5015113;28;20453;-73
2021/09/26 05:59:48;;;;;;;3.17;1.40;;;23.00;55.10;;;;;;5012747;28;20384;-73
2021/09/26 06:02:19;;;;;;;3.50;1.60;;;23.00;55.30;;;;;;5016941;28;20468;-73
2021/09/26 06:04:45;;;;;;;2.75;1.40;;;23.10;55.20;;;;;;5014148;28;20416;-73
2021/09/26 06:07:11;;;;;;;5.07;1.58;;;23.00;55.30;;;;;;5014355;28;20426;-73
2021/09/26 06:09:36;;;;;;;3.07;1.50;;;23.00;55.30;;;;;;5012860;28;20912;-73
2021/09/26 06:12:02;;;;;;;4.33;1.47;;;23.10;55.40;;;;;;5015863;28;20399;-73
2021/09/26 06:14:28;;;;;;;3.92;1.42;;;23.10;55.40;;;;;;5013995;28;20397;-73
2021/09/26 06:16:53;;;;;;;2.73;1.60;;;23.10;55.40;;;;;;5012891;28;20383;-73
2021/09/26 06:19:19;;;;;;;4.20;1.60;;;23.10;55.40;;;;;;5013765;28;20736;-73
2021/09/26 06:21:45;;;;;;;3.53;1.27;;;23.10;55.50;;;;;;5011748;28;20402;-73
2021/09/26 06:24:12;;;;;;;4.03;1.58;;;23.10;55.70;;;;;;5011006;28;20881;-73
2021/09/26 06:26:38;;;;;;;3.65;1.40;;;23.10;55.60;;;;;;5011963;28;20429;-73
2021/09/26 06:29:04;;;;;;;4.53;1.43;;;23.10;55.60;;;;;;5021592;28;20387;-73
2021/09/26 06:31:30;;;;;;;3.95;1.50;;;23.20;55.70;;;;;;5009919;28;20466;-73
2021/09/26 06:33:55;;;;;;;4.88;1.50;;;23.10;55.70;;;;;;5009915;28;20782;-73
2021/09/26 06:36:21;;;;;;;3.30;1.40;;;23.10;55.80;;;;;;5011632;28;20421;-73
2021/09/26 06:38:46;;;;;;;3.97;1.43;;;23.10;55.80;;;;;;5016756;28;20407;-73
2021/09/26 06:41:14;;;;;;;6.20;1.58;;;23.10;55.30;;;;;;5013055;28;20437;-73
2021/09/26 06:43:39;;;;;;;5.32;1.63;;;23.10;55.30;;;;;;5015691;28;20764;-73
2021/09/26 06:46:05;;;;;;;5.13;1.50;;;23.20;55.10;;;;;;5011452;28;20431;-73
2021/09/26 06:48:31;;;;;;;3.97;1.55;;;23.10;54.70;;;;;;5009371;28;20393;-73
2021/09/26 06:50:56;;;;;;;5.00;1.60;;;23.10;54.60;;;;;;5015717;28;20448;-74
2021/09/26 06:53:22;;;;;;;3.22;1.40;;;23.10;54.60;;;;;;5009053;28;20379;-73
2021/09/26 06:55:48;;;;;;;3.70;1.77;;;23.10;54.50;;;;;;5013515;28;20399;-73
2021/09/26 06:58:13;;;;;;;3.00;1.65;;;23.10;54.50;;;;;;5013811;28;20388;-73
2021/09/26 07:00:39;;;;;;;4.27;1.63;;;23.10;54.30;;;;;;5010248;28;20498;-73
2021/09/26 07:03:04;;;;;;;2.70;1.47;;;23.10;54.50;;;;;;5012146;28;20439;-73
2021/09/26 07:05:30;;;;;;;3.40;1.60;;;23.10;54.50;;;;;;5012661;28;20443;-73
2021/09/26 07:07:56;;;;;;;3.60;1.50;;;23.10;54.60;;;;;;5013977;28;20419;-73
2021/09/26 07:10:22;;;;;;;3.30;1.67;;;23.10;54.50;;;;;;5010233;28;20412;-73
2021/09/26 07:12:49;;;;;;;3.73;1.80;;;23.10;54.60;;;;;;5008728;28;21158;-73
2021/09/26 07:15:17;;;;;;;3.53;1.60;;;23.10;54.60;;;;;;5010008;28;20888;-74
2021/09/26 07:17:44;;;;;;;2.65;1.40;;;23.10;54.50;;;;;;5008542;28;20400;-74
2021/09/26 07:20:09;;;;;;;3.03;1.50;;;23.10;54.50;;;;;;5009194;28;20953;-73
2021/09/26 07:22:35;;;;;;;2.55;1.50;;;23.10;54.60;;;;;;5007293;28;20400;-73
2021/09/26 07:25:01;;;;;;;3.20;1.58;;;23.10;54.60;;;;;;5011096;28;20460;-73
2021/09/26 07:27:27;;;;;;;3.20;1.40;;;23.10;54.60;;;;;;5009980;28;20412;-73
2021/09/26 07:29:54;;;;;;;2.30;1.20;;;23.10;54.60;;;;;;5014168;28;20885;-73
2021/09/26 07:32:21;;;;;;;2.35;1.33;;;23.10;54.60;;;;;;5008325;28;20407;-73
2021/09/26 07:34:47;;;;;;;2.03;1.40;;;23.10;54.60;;;;;;5004951;28;20389;-73
2021/09/26 07:37:13;;;;;;;2.07;1.30;;;23.10;54.60;;;;;;5011204;28;20396;-73
2021/09/26 07:39:39;;;;;;;2.35;1.33;;;23.20;54.70;;;;;;5011997;28;20395;-74
2021/09/26 07:42:05;;;;;;;2.10;1.30;;;23.20;54.60;;;;;;5008405;28;20391;-73
2021/09/26 07:44:32;;;;;;;2.25;1.45;;;23.20;54.60;;;;;;5010976;28;20409;-75
2021/09/26 07:46:58;;;;;;;2.70;1.50;;;23.20;54.50;;;;;;5012582;28;20426;-73
2021/09/26 07:49:24;;;;;;;2.20;1.40;;;23.20;54.50;;;;;;5011654;28;20391;-73
2021/09/26 07:51:51;;;;;;;3.15;1.50;;;23.20;54.40;;;;;;5013885;28;20428;-74
2021/09/26 07:54:17;;;;;;;2.90;1.30;;;23.20;54.40;;;;;;5016079;28;20395;-73
2021/09/26 07:56:44;;;;;;;2.28;1.40;;;23.20;54.30;;;;;;5014730;28;20404;-73
2021/09/26 07:59:10;;;;;;;2.83;1.48;;;23.30;54.40;;;;;;5017155;28;20397;-73
2021/09/26 08:01:35;;;;;;;2.17;1.30;;;23.30;54.40;;;;;;5019581;28;20422;-73
2021/09/26 08:04:01;;;;;;;2.97;1.50;;;23.30;54.20;;;;;;5014245;28;20424;-74
2021/09/26 08:06:27;;;;;;;2.25;1.48;;;23.30;54.30;;;;;;5013044;28;20519;-73
2021/09/26 08:08:53;;;;;;;1.50;1.10;;;23.30;54.10;;;;;;5012363;28;20500;-73
2021/09/26 08:11:19;;;;;;;2.20;1.40;;;23.40;54.20;;;;;;5014528;28;20410;-73
2021/09/26 08:13:44;;;;;;;2.20;1.30;;;23.40;54.10;;;;;;5016611;28;20418;-73
2021/09/26 08:16:10;;;;;;;1.65;1.42;;;23.40;54.10;;;;;;5013621;28;20397;-74
2021/09/26 08:18:37;;;;;;;2.28;1.25;;;23.40;54.60;;;;;;5016356;28;20410;-73
2021/09/26 08:21:04;;;;;;;1.80;1.33;;;23.40;53.90;;;;;;5013050;28;20798;-73
2021/09/26 08:23:30;;;;;;;2.15;1.30;;;23.50;53.90;;;;;;5014517;28;21261;-74
2021/09/26 08:25:57;;;;;;;1.95;1.30;;;23.50;53.90;;;;;;5015756;28;20479;-74
2021/09/26 08:28:23;;;;;;;1.58;1.20;;;23.50;53.90;;;;;;5014257;28;20390;-73
2021/09/26 08:30:50;;;;;;;2.10;1.25;;;23.60;53.80;;;;;;5013469;28;20802;-73
2021/09/26 08:33:15;;;;;;;1.80;1.20;;;23.60;53.70;;;;;;5013382;28;21192;-73
2021/09/26 08:35:41;;;;;;;2.20;1.30;;;23.60;53.60;;;;;;5013880;28;20405;-73
2021/09/26 08:38:07;;;;;;;1.70;1.20;;;23.70;53.60;;;;;;5016531;28;20879;-74
2021/09/26 08:40:33;;;;;;;2.00;1.30;;;23.70;53.50;;;;;;5016369;28;20404;-74
2021/09/26 08:42:59;;;;;;;2.00;1.27;;;23.70;53.50;;;;;;5016428;28;20409;-74
2021/09/26 08:45:25;;;;;;;2.40;1.30;;;23.70;53.60;;;;;;5017736;28;20417;-73
2021/09/26 08:47:51;;;;;;;2.65;1.52;;;23.80;53.50;;;;;;5017545;28;20430;-73
2021/09/26 08:50:25;;;;;;;2.60;1.40;;;23.80;53.40;;;;;;5010450;28;20432;-74
2021/09/26 08:52:52;;;;;;;2.70;1.60;;;23.90;53.50;;;;;;5011249;28;20399;-74
2021/09/26 08:55:18;;;;;;;3.78;1.45;;;23.90;53.30;;;;;;5012822;28;20420;-74
2021/09/26 08:57:44;;;;;;;3.13;1.40;;;23.90;53.40;;;;;;5014905;28;20400;-74
2021/09/26 09:00:13;;;;;;;4.32;1.77;;;24.00;53.50;;;;;;5010051;28;20935;-74
2021/09/26 09:02:39;;;;;;;1.92;1.50;;;24.00;53.40;;;;;;5010630;28;20913;-73
2021/09/26 09:05:06;;;;;;;1.80;1.20;;;24.00;53.30;;;;;;5013937;28;20391;-73
2021/09/26 09:07:32;;;;;;;4.00;1.50;;;24.10;53.20;;;;;;5013637;28;20988;-74
2021/09/26 09:10:01;;;;;;;4.40;1.70;;;24.10;52.90;;;;;;5014440;28;20412;-73
2021/09/26 09:12:32;;;;;;;3.55;1.50;;;24.10;53.50;;;;;;5014030;28;20766;-74
2021/09/26 09:15:01;;;;;;;2.88;1.50;;;24.20;52.90;;;;;;5013973;28;20470;-73
2021/09/26 09:17:38;;;;;;;2.00;1.30;;;24.20;52.70;;;;;;5015987;28;20930;-74
2021/09/26 09:20:22;;;;;;;2.72;1.50;;;24.30;52.60;;;;;;5012631;28;20404;-74
2021/09/26 09:22:53;;;;;;;3.30;1.50;;;24.30;52.50;;;;;;5010871;28;20833;-73
2021/09/26 09:25:36;;;;;;;3.13;1.40;;;24.30;52.50;;;;;;5010312;28;20441;-74
2021/09/26 09:28:08;;;;;;;2.20;1.40;;;24.40;52.50;;;;;;5011621;28;20387;-73
2021/09/26 09:30:43;;;;;;;2.38;1.30;;;24.40;52.40;;;;;;5013979;28;20411;-74
2021/09/26 09:33:09;;;;;;;3.00;1.40;;;24.50;52.30;;;;;;5014529;28;20392;-74
2021/09/26 09:35:44;;;;;;;3.83;1.50;;;24.50;52.30;;;;;;5013398;28;20405;-74
2021/09/26 09:38:12;;;;;;;4.00;1.50;;;24.60;52.10;;;;;;5011087;28;20428;-74
2021/09/26 09:40:38;;;;;;;2.80;1.30;;;24.60;52.10;;;;;;5016471;28;20390;-74
2021/09/26 09:43:04;;;;;;;2.75;1.40;;;24.60;52.00;;;;;;5029242;28;20404;-74
2021/09/26 09:45:33;;;;;;;2.88;1.38;;;24.70;52.10;;;;;;5014892;28;20426;-74
2021/09/26 09:48:10;;;;;;;2.92;1.30;;;24.70;51.90;;;;;;5013495;28;20944;-74
2021/09/26 09:50:47;;;;;;;2.33;1.40;;;24.70;51.80;;;;;;5007094;28;20462;-74
2021/09/26 09:53:36;;;;;;;2.72;1.50;;;24.80;51.70;;;;;;5007138;28;20451;-74
2021/09/26 09:56:19;;;;;;;3.70;1.60;;;24.80;51.60;;;;;;5014480;28;20381;-74
2021/09/26 09:58:44;;;;;;;2.60;1.40;;;24.90;51.60;;;;;;5010665;28;20428;-74
2021/09/26 10:01:14;;;;;;;3.10;1.73;;;25.00;51.50;;;;;;5013745;28;20440;-74
2021/09/26 10:03:47;;;;;;;2.20;1.52;;;25.00;51.30;;;;;;5008629;28;20428;-74
2021/09/26 10:06:26;;;;;;;3.17;1.50;;;25.00;51.20;;;;;;5007287;28;20423;-74
2021/09/26 10:08:53;;;;;;;4.05;1.25;;;25.10;51.10;;;;;;5002230;28;20407;-74
2021/09/26 10:11:20;;;;;;;3.57;1.40;;;25.20;51.00;;;;;;5010410;28;20406;-73
2021/09/26 10:13:47;;;;;;;2.63;1.30;;;25.30;51.00;;;;;;5008260;28;20401;-74
2021/09/26 10:16:15;;;;;;;3.22;1.70;;;25.30;50.70;;;;;;5004400;28;20441;-74
2021/09/26 10:18:43;;;;;;;3.30;1.38;;;25.40;50.60;;;;;;5014022;28;20913;-74
2021/09/26 10:21:12;;;;;;;3.22;1.42;;;25.40;50.40;;;;;;5013060;28;20407;-74
2021/09/26 10:23:41;;;;;;;7.10;1.48;;;25.50;50.30;;;;;;5025669;28;20753;-73
2021/09/26 10:26:07;;;;;;;2.67;1.40;;;25.60;50.10;;;;;;5009876;28;20920;-74
2021/09/26 10:28:35;;;;;;;3.65;1.42;;;25.60;50.00;;;;;;5009613;28;20404;-74
2021/09/26 10:31:04;;;;;;;4.13;1.40;;;25.70;49.80;;;;;;5011107;28;20396;-74
2021/09/26 10:33:31;;;;;;;3.03;1.40;;;25.70;49.70;;;;;;5007476;28;20426;-74
2021/09/26 10:35:59;;;;;;;2.97;1.42;;;25.80;50.10;;;;;;5006280;28;20391;-74
2021/09/26 10:38:26;;;;;;;2.38;1.20;;;25.90;49.50;;;;;;5005759;28;20402;-74
2021/09/26 10:40:52;;;;;;;3.00;1.35;;;25.90;49.40;;;;;;5006084;28;20418;-74
2021/09/26 10:43:20;;;;;;;2.95;1.40;;;26.00;49.20;;;;;;5008961;28;20440;-74
2021/09/26 10:45:47;;;;;;;2.45;1.10;;;26.00;49.00;;;;;;5003193;28;20439;-73
2021/09/26 10:48:13;;;;;;;2.97;1.60;;;26.10;49.00;;;;;;5007226;28;20393;-74
2021/09/26 10:50:41;;;;;;;2.30;1.40;;;26.10;48.80;;;;;;5008940;28;21486;-74
2021/09/26 10:53:12;;;;;;;3.28;1.50;;;26.20;48.90;;;;;;5009151;28;20407;-74
2021/09/26 10:55:39;;;;;;;3.08;1.50;;;26.30;49.00;;;;;;5013945;28;20387;-74
2021/09/26 10:58:05;;;;;;;4.22;1.85;;;26.30;49.10;;;;;;5010787;28;20406;-74
2021/09/26 11:01:01;;;;;;;3.88;1.60;;;26.30;49.20;;;;;;5011657;28;20397;-74
2021/09/26 11:03:39;;;;;;;3.88;1.70;;;26.30;49.20;;;;;;5007339;28;20810;-73
2021/09/26 11:06:24;;;;;;;5.35;1.80;;;26.40;49.10;;;;;;5010126;28;20422;-74
2021/09/26 11:08:59;;;;;;;4.20;1.73;;;26.50;49.00;;;;;;5013654;28;20448;-74
2021/09/26 11:11:45;;;;;;;3.03;1.70;;;26.60;48.90;;;;;;5011834;28;20473;-72
2021/09/26 11:14:11;;;;;;;4.45;1.80;;;26.70;48.60;;;;;;5003272;28;20400;-72
2021/09/26 11:16:58;;;;;;;3.38;1.63;;;26.80;48.70;;;;;;5013235;28;20485;-72
2021/09/26 11:19:27;;;;;;;4.10;1.50;;;26.80;48.70;;;;;;5015227;28;20395;-72
2021/09/26 11:21:56;;;;;;;3.80;1.60;;;26.90;48.70;;;;;;5012197;28;20395;-72
2021/09/26 11:24:21;;;;;;;3.58;1.67;;;27.00;48.80;;;;;;5024761;28;20398;-71
2021/09/26 11:26:57;;;;;;;6.87;1.83;;;27.00;49.00;;;;;;5010049;28;20426;-73
2021/09/26 11:29:38;;;;;;;4.88;2.03;;;27.10;49.20;;;;;;5010330;28;21595;-72
2021/09/26 11:32:19;;;;;;;6.63;1.90;;;27.10;49.30;;;;;;5014456;28;20401;-71
2021/09/26 11:34:53;;;;;;;4.30;1.70;;;27.10;49.70;;;;;;5007581;28;20399;-72
2021/09/26 11:37:41;;;;;;;3.83;1.73;;;27.10;49.20;;;;;;5009268;28;20399;-72
2021/09/26 11:40:12;;;;;;;5.05;1.90;;;27.20;49.60;;;;;;5000770;28;20395;-73
2021/09/26 11:42:54;;;;;;;3.77;1.90;;;27.20;49.90;;;;;;5014154;28;20967;-72
2021/09/26 11:45:28;;;;;;;5.75;2.38;;;27.10;50.50;;;;;;5012210;28;20391;-73
2021/09/26 11:47:58;;;;;;;5.15;2.50;;;27.00;51.10;;;;;;5010121;28;20529;-73
2021/09/26 11:50:23;;;;;;;7.90;3.03;;;26.80;51.60;;;;;;5015993;28;20395;-72
2021/09/26 11:52:49;;;;;;;5.20;2.60;;;27.00;54.00;;;;;;5009177;28;20401;-72
2021/09/26 11:55:17;;;;;;;5.70;2.35;;;27.10;52.80;;;;;;5011226;28;20400;-73
2021/09/26 11:57:42;;;;;;;4.68;2.10;;;27.00;51.90;;;;;;5010270;28;20405;-73
2021/09/26 12:00:24;;;;;;;4.13;1.97;;;26.90;51.40;;;;;;5010807;28;20752;-72
2021/09/26 12:02:50;;;;;;;4.25;2.00;;;26.80;51.50;;;;;;5012577;28;20392;-73
2021/09/26 12:05:30;;;;;;;3.70;2.10;;;26.70;51.40;;;;;;5010655;28;20414;-74
2021/09/26 12:07:56;;;;;;;2.55;2.00;;;26.60;51.60;;;;;;5011005;28;20419;-72
2021/09/26 12:10:22;;;;;;;5.45;2.13;;;26.60;51.60;;;;;;5012311;28;20394;-72
2021/09/26 12:12:47;;;;;;;3.07;1.90;;;26.50;51.60;;;;;;5010636;28;20403;-74
2021/09/26 12:15:15;;;;;;;3.60;1.95;;;26.40;51.60;;;;;;5010829;28;20405;-73
2021/09/26 12:17:40;;;;;;;4.70;1.85;;;26.40;51.60;;;;;;5013083;28;20408;-72
2021/09/26 12:20:14;;;;;;;3.38;1.75;;;26.30;51.60;;;;;;5012611;28;20402;-73
2021/09/26 12:22:40;;;;;;;3.92;1.70;;;26.30;51.70;;;;;;5011069;28;20405;-72
2021/09/26 12:25:25;;;;;;;3.75;2.10;;;26.20;51.80;;;;;;5011548;28;20416;-72
2021/09/26 12:28:01;;;;;;;2.50;1.83;;;26.20;51.80;;;;;;5011734;28;20391;-72
2021/09/26 12:30:44;;;;;;;3.13;1.90;;;26.10;51.80;;;;;;5009922;28;20478;-77
2021/09/26 12:33:25;;;;;;;3.40;1.70;;;26.10;52.00;;;;;;5013110;28;20762;-72
2021/09/26 12:35:55;;;;;;;3.13;1.70;;;26.10;51.80;;;;;;5014535;28;20407;-73
2021/09/26 12:38:28;;;;;;;4.43;2.00;;;26.00;51.90;;;;;;5015384;28;20427;-71
2021/09/26 12:41:06;;;;;;;2.45;1.65;;;26.00;51.90;;;;;;5017653;28;20971;-72
2021/09/26 12:43:35;;;;;;;3.55;1.80;;;26.00;51.90;;;;;;5015017;28;20404;-72
2021/09/26 12:46:04;;;;;;;4.80;1.83;;;25.90;52.20;;;;;;5014894;28;20424;-72
2021/09/26 12:48:32;;;;;;;4.32;1.88;;;25.90;52.20;;;;;;5015215;28;20402;-71
2021/09/26 12:51:06;;;;;;;3.28;1.80;;;25.90;52.60;;;;;;5015685;28;20411;-72
2021/09/26 12:53:38;;;;;;;3.90;1.70;;;25.90;52.60;;;;;;5011752;28;20996;-73
2021/09/26 12:56:05;;;;;;;3.07;2.10;;;25.90;52.60;;;;;;5013586;28;20918;-72